createdAt,value
2023-01-17T16:09:44.919Z,7.57
2023-01-17T16:12:13.209Z,7.42
2023-01-17T16:14:59.488Z,7.37
2023-01-17T16:17:34.962Z,7.26
2023-01-17T16:22:56.548Z,7.15
2023-01-17T16:25:25.557Z,7.07
2023-01-17T16:27:54.175Z,7.04
2023-01-17T16:30:25.554Z,7.02
2023-01-17T16:32:54.081Z,7.01
2023-01-17T16:35:27.145Z,7.00
2023-01-17T16:37:57.074Z,7.02
2023-01-17T16:40:30.378Z,7.00
2023-01-17T16:43:03.505Z,6.97
2023-01-17T16:45:31.821Z,6.92
2023-01-17T16:48:04.655Z,6.94
2023-01-17T16:50:44.193Z,7.00
2023-01-17T16:53:12.419Z,7.08
2023-01-17T16:55:45.058Z,7.14
2023-01-17T16:58:16.848Z,7.24
2023-01-17T17:00:45.141Z,7.36
2023-01-17T17:03:18.353Z,7.47
2023-01-17T17:05:58.019Z,7.62
2023-01-17T17:08:29.177Z,7.77
2023-01-17T17:11:21.733Z,7.83
2023-01-17T17:13:54.933Z,7.89
2023-01-17T17:16:33.040Z,7.94
2023-01-17T17:19:10.709Z,7.97
2023-01-17T17:21:39.495Z,7.93
2023-01-17T17:24:09.128Z,7.84
2023-01-17T17:26:37.352Z,7.74
2023-01-17T17:29:10.557Z,7.63
2023-01-17T17:31:46.247Z,7.52
2023-01-17T17:34:15.495Z,7.39
2023-01-17T17:36:44.045Z,7.29
2023-01-17T17:39:15.123Z,7.24
2023-01-17T17:41:45.524Z,7.18
2023-01-17T17:44:13.760Z,7.12
2023-01-17T17:46:44.879Z,7.04
2023-01-17T17:49:13.089Z,6.97
2023-01-17T17:51:47.299Z,6.90
2023-01-17T17:54:19.644Z,6.90
2023-01-17T17:56:48.511Z,6.87
2023-01-17T17:59:19.581Z,6.85
2023-01-17T18:01:48.469Z,6.83
2023-01-17T18:04:23.772Z,6.80
2023-01-17T18:06:58.197Z,6.77
2023-01-17T18:09:27.833Z,6.71
2023-01-17T18:11:57.647Z,6.68
2023-01-17T18:14:25.878Z,6.66
2023-01-17T18:16:54.183Z,6.64
2023-01-17T18:19:34.308Z,6.59
2023-01-17T18:22:03.827Z,6.59
2023-01-17T18:24:34.007Z,6.62
2023-01-17T18:27:05.587Z,6.64
2023-01-17T18:29:40.497Z,6.70
2023-01-17T18:32:08.765Z,6.72
2023-01-17T18:34:52.191Z,6.74
2023-01-17T18:37:20.269Z,6.78
2023-01-17T18:39:51.440Z,6.85
2023-01-17T18:46:41.770Z,6.89
2023-01-17T18:49:16.226Z,6.83
2023-01-17T18:51:50.591Z,6.75
2023-01-17T18:54:20.391Z,6.67
2023-01-17T18:56:49.076Z,6.64
2023-01-17T18:59:21.672Z,6.65
2023-01-17T19:01:50.225Z,6.67
2023-01-17T19:04:19.395Z,6.65
2023-01-17T19:06:48.567Z,6.62
2023-01-17T19:09:17.637Z,6.58
2023-01-17T19:11:47.627Z,6.62
2023-01-17T19:14:15.990Z,6.67
2023-01-17T19:16:44.550Z,6.67
2023-01-17T19:19:15.468Z,6.62
2023-01-17T19:21:44.388Z,6.59
2023-01-17T19:24:13.426Z,6.57
2023-01-17T19:26:43.105Z,6.57
2023-01-17T19:29:12.308Z,6.56
2023-01-17T19:31:43.109Z,6.58
2023-01-17T19:34:18.937Z,6.55
2023-01-17T19:36:47.518Z,6.51
2023-01-17T19:39:16.172Z,6.49
2023-01-17T19:41:45.613Z,6.46
2023-01-17T19:44:14.670Z,6.49
2023-01-17T19:46:44.424Z,6.64
2023-01-17T19:49:12.707Z,6.74
2023-01-17T19:51:40.881Z,6.88
2023-01-17T19:54:09.182Z,6.91
2023-01-17T19:56:37.575Z,6.94
2023-01-17T19:59:07.248Z,6.94
2023-01-17T20:01:35.673Z,6.94
2023-01-17T20:04:04.491Z,6.91
2023-01-17T20:06:37.060Z,6.94
2023-01-17T20:09:06.096Z,6.98
2023-01-17T20:11:34.681Z,7.02
2023-01-17T20:14:05.618Z,7.02
2023-01-17T20:16:36.111Z,7.01
2023-01-17T20:19:04.993Z,6.91
2023-01-17T20:21:34.522Z,6.84
2023-01-17T20:24:06.144Z,6.80
2023-01-17T20:26:35.401Z,6.83
2023-01-17T20:29:10.608Z,6.88
2023-01-17T20:31:41.002Z,6.97
2023-01-17T20:34:12.276Z,7.10
2023-01-17T20:36:44.244Z,7.16
2023-01-17T20:39:19.677Z,7.20
2023-01-17T20:41:49.943Z,7.18
2023-01-17T20:44:19.765Z,7.12
2023-01-17T20:46:48.340Z,7.04
2023-01-17T20:49:19.283Z,6.92
2023-01-17T20:51:47.735Z,6.80
2023-01-17T20:54:18.621Z,6.69
2023-01-17T20:56:47.874Z,6.59
2023-01-17T20:59:19.001Z,6.50
2023-01-17T21:01:48.129Z,6.42
2023-01-17T21:04:18.150Z,6.35
2023-01-17T21:06:46.531Z,6.27
2023-01-17T21:09:15.553Z,6.20
2023-01-17T21:11:43.892Z,6.10
2023-01-17T21:14:12.147Z,6.01
2023-01-17T21:16:41.236Z,5.93
2023-01-17T21:19:12.201Z,5.83
2023-01-17T21:21:40.737Z,5.74
2023-01-17T21:24:09.068Z,5.63
2023-01-17T21:26:39.033Z,5.52
2023-01-17T21:29:08.808Z,5.41
2023-01-17T21:31:38.823Z,5.34
2023-01-17T21:34:09.630Z,5.38
2023-01-17T21:36:40.215Z,5.46
2023-01-17T21:39:29.463Z,5.61
2023-01-17T21:41:57.719Z,5.74
2023-01-17T21:44:28.029Z,5.80
2023-01-17T21:46:59.807Z,5.83
2023-01-17T21:49:37.386Z,5.85
2023-01-17T21:52:20.868Z,5.84
2023-01-17T21:55:07.711Z,5.86
2023-01-17T21:57:54.732Z,5.86
2023-01-17T22:00:23.217Z,5.84
2023-01-17T22:02:51.586Z,5.80
2023-01-17T22:05:20.062Z,5.74
2023-01-17T22:08:20.097Z,5.67
2023-01-17T22:10:49.066Z,5.61
2023-01-17T22:13:18.766Z,5.59
2023-01-17T22:15:58.743Z,5.58
2023-01-17T22:18:28.051Z,5.57
2023-01-17T22:20:57.323Z,5.57
2023-01-17T22:23:25.893Z,5.56
2023-01-17T22:25:54.024Z,5.58
2023-01-17T22:28:22.556Z,5.62
2023-01-17T22:30:50.924Z,5.65
2023-01-17T22:33:19.183Z,5.71
2023-01-17T22:35:47.431Z,5.74
2023-01-17T22:38:15.663Z,5.77
2023-01-17T22:40:43.964Z,5.78
2023-01-17T22:43:12.390Z,5.81
2023-01-17T22:45:40.754Z,5.87
2023-01-17T22:48:10.404Z,5.93
2023-01-17T22:50:38.784Z,5.99
2023-01-17T22:53:07.171Z,6.01
2023-01-17T22:55:35.419Z,6.03
2023-01-17T22:58:03.763Z,6.03
2023-01-17T23:00:31.996Z,6.04
2023-01-17T23:03:00.584Z,6.03
2023-01-17T23:05:29.126Z,5.99
2023-01-17T23:07:57.432Z,5.91
2023-01-17T23:10:44.310Z,5.82
2023-01-17T23:13:12.751Z,5.77
2023-01-17T23:15:59.859Z,5.72
2023-01-17T23:18:46.408Z,5.66
2023-01-17T23:21:14.664Z,5.61
2023-01-17T23:23:42.817Z,5.58
2023-01-17T23:26:10.998Z,5.56
2023-01-17T23:28:39.251Z,5.58
2023-01-17T23:31:08.899Z,5.64
2023-01-17T23:33:37.079Z,5.71
2023-01-17T23:36:09.430Z,5.77
2023-01-17T23:38:40.737Z,5.77
2023-01-17T23:41:27.906Z,5.76
2023-01-17T23:43:58.366Z,5.74
2023-01-17T23:46:27.528Z,5.68
2023-01-17T23:48:55.831Z,5.63
2023-01-17T23:51:24.068Z,5.58
2023-01-17T23:53:57.598Z,5.54
2023-01-17T23:56:25.945Z,5.51
2023-01-17T23:58:54.127Z,5.55
